createdAt,value
2022-08-03T00:02:08.161Z,24.60
2022-08-03T00:04:45.573Z,25.93
2022-08-03T00:07:27.221Z,26.27
2022-08-03T00:09:58.015Z,26.87
2022-08-03T00:12:52.166Z,28.10
2022-08-03T00:15:21.153Z,27.63
2022-08-03T00:17:52.107Z,27.80
2022-08-03T00:20:29.391Z,31.17
2022-08-03T00:22:58.929Z,31.03
2022-08-03T00:25:36.188Z,31.70
2022-08-03T00:28:19.798Z,32.37
2022-08-03T00:31:30.958Z,31.97
2022-08-03T00:34:08.762Z,34.57
2022-08-03T00:36:49.081Z,34.53
2022-08-03T00:39:36.151Z,35.70
2022-08-03T00:42:19.222Z,38.00
2022-08-03T00:44:54.544Z,38.03
2022-08-03T00:47:23.983Z,40.07
2022-08-03T00:50:06.937Z,39.20
2022-08-03T00:52:42.699Z,39.30
2022-08-03T00:55:17.250Z,36.37
2022-08-03T00:58:12.091Z,39.27
2022-08-03T01:00:59.653Z,39.87
2022-08-03T01:03:33.919Z,40.90
2022-08-03T01:06:20.273Z,40.47
2022-08-03T01:08:53.813Z,40.83
2022-08-03T01:11:32.684Z,41.40
2022-08-03T01:14:18.682Z,43.73
2022-08-03T01:16:58.228Z,43.70
2022-08-03T01:19:50.038Z,43.10
2022-08-03T01:22:37.600Z,44.50
2022-08-03T01:25:36.467Z,45.97
2022-08-03T01:28:27.237Z,45.63
2022-08-03T01:31:28.685Z,46.30
2022-08-03T01:34:14.669Z,48.10
2022-08-03T01:36:54.016Z,48.63
2022-08-03T01:39:26.542Z,49.00
2022-08-03T01:42:15.318Z,50.13
2022-08-03T01:45:14.601Z,51.33
2022-08-03T01:48:03.014Z,53.53
2022-08-03T01:50:39.590Z,53.97
2022-08-03T01:53:42.914Z,54.90
2022-08-03T01:56:13.126Z,55.37
2022-08-03T01:58:47.040Z,56.20
2022-08-03T02:01:25.300Z,56.53
2022-08-03T02:04:18.757Z,54.43
2022-08-03T02:07:00.815Z,54.70
2022-08-03T02:09:40.199Z,54.97
2022-08-03T02:12:16.242Z,55.00
2022-08-03T02:15:17.983Z,56.93
2022-08-03T02:17:49.702Z,54.47
2022-08-03T02:20:22.429Z,54.60
2022-08-03T02:22:55.012Z,55.90
2022-08-03T02:25:29.512Z,55.27
2022-08-03T02:28:03.059Z,55.77
2022-08-03T02:30:42.047Z,54.47
2022-08-03T02:33:19.254Z,54.27
2022-08-03T02:36:07.467Z,55.37
2022-08-03T02:38:41.351Z,56.20
2022-08-03T02:41:39.230Z,54.40
2022-08-03T02:44:27.959Z,56.60
2022-08-03T02:47:21.469Z,56.57
2022-08-03T02:49:58.694Z,58.80
2022-08-03T02:52:39.710Z,59.67
2022-08-03T02:55:30.855Z,61.67
2022-08-03T02:58:56.665Z,63.37
2022-08-03T03:01:29.485Z,62.60
2022-08-03T03:04:02.262Z,63.30
2022-08-03T03:06:42.125Z,63.97
2022-08-03T03:09:20.229Z,65.20
2022-08-03T03:11:56.154Z,63.17
2022-08-03T03:14:33.867Z,61.20
2022-08-03T03:17:18.111Z,64.20
2022-08-03T03:19:51.300Z,62.50
2022-08-03T03:22:25.399Z,63.30
2022-08-03T03:25:04.602Z,61.17
2022-08-03T03:27:42.551Z,60.63
2022-08-03T03:30:36.844Z,55.77
2022-08-03T03:33:17.010Z,55.00
2022-08-03T03:35:54.738Z,58.53
2022-08-03T03:38:41.219Z,58.80
2022-08-03T03:41:11.586Z,57.87
2022-08-03T03:43:43.184Z,59.77
2022-08-03T03:46:14.471Z,61.80
2022-08-03T03:48:45.423Z,62.30
2022-08-03T03:51:14.009Z,60.97
2022-08-03T03:54:00.285Z,62.60
2022-08-03T03:56:30.469Z,63.77
2022-08-03T03:59:24.109Z,62.83
2022-08-03T04:02:16.584Z,63.50
2022-08-03T04:05:04.619Z,64.47
2022-08-03T04:08:17.441Z,65.50
2022-08-03T04:11:01.078Z,65.33
2022-08-03T04:13:37.757Z,64.73
2022-08-03T04:16:10.058Z,68.50
2022-08-03T04:18:40.260Z,66.70
2022-08-03T04:21:13.833Z,65.23
2022-08-03T04:23:49.606Z,67.60
2022-08-03T04:26:30.030Z,67.97
2022-08-03T04:29:14.728Z,65.97
2022-08-03T04:31:47.998Z,66.43
2022-08-03T04:34:23.828Z,64.00
2022-08-03T04:37:27.793Z,65.60
2022-08-03T04:40:01.098Z,65.53
2022-08-03T04:42:33.188Z,67.50
2022-08-03T04:45:13.055Z,65.97
2022-08-03T04:47:50.213Z,67.20
2022-08-03T04:50:24.815Z,65.67
2022-08-03T04:52:53.076Z,63.00
2022-08-03T04:55:33.411Z,64.87
2022-08-03T04:58:19.085Z,64.87
2022-08-03T05:00:51.397Z,63.03
2022-08-03T05:03:25.571Z,61.80
2022-08-03T05:06:11.200Z,62.40
2022-08-03T05:08:56.343Z,59.77
2022-08-03T05:11:35.064Z,59.87
2022-08-03T05:14:28.333Z,59.20
2022-08-03T05:17:22.950Z,60.40
2022-08-03T05:20:00.254Z,61.47
2022-08-03T05:22:42.911Z,63.83
2022-08-03T05:25:27.104Z,63.83
2022-08-03T05:27:57.914Z,65.70
2022-08-03T05:30:41.317Z,61.90
2022-08-03T05:33:24.138Z,64.40
2022-08-03T05:36:01.895Z,61.67
2022-08-03T05:38:34.896Z,59.07
2022-08-03T05:41:21.290Z,57.70
2022-08-03T05:43:56.670Z,54.83
2022-08-03T05:46:31.359Z,53.03
2022-08-03T05:49:05.183Z,49.07
2022-08-03T05:51:41.790Z,47.60
2022-08-03T05:54:10.168Z,46.90
2022-08-03T05:56:38.570Z,42.40
2022-08-03T05:59:37.483Z,39.83
2022-08-03T06:02:08.719Z,37.80
2022-08-03T06:04:54.205Z,33.60
2022-08-03T06:07:33.269Z,32.60
2022-08-03T06:10:36.328Z,28.33
2022-08-03T06:13:00.175Z,27.10
2022-08-03T06:15:38.551Z,24.60
2022-08-03T06:18:13.052Z,23.60
2022-08-03T06:20:47.223Z,23.10
2022-08-03T06:23:53.947Z,22.03
2022-08-03T06:26:22.814Z,20.83
2022-08-03T06:28:58.633Z,20.70
2022-08-03T06:31:33.239Z,19.60
2022-08-03T06:34:33.028Z,19.27
2022-08-03T06:37:02.004Z,19.50
2022-08-03T06:39:36.774Z,18.40
2022-08-03T06:42:14.381Z,18.93
2022-08-03T06:44:50.519Z,18.40
2022-08-03T06:47:26.867Z,17.70
2022-08-03T06:50:16.151Z,17.83
2022-08-03T06:52:55.751Z,18.00
2022-08-03T06:55:42.291Z,18.47
2022-08-03T06:58:11.016Z,18.03
2022-08-03T07:00:39.486Z,18.50
2022-08-03T07:03:08.039Z,17.70
2022-08-03T07:05:37.704Z,17.80
2022-08-03T07:08:33.218Z,17.97
2022-08-03T07:11:02.776Z,18.00
2022-08-03T07:13:38.919Z,17.60
2022-08-03T07:16:07.668Z,18.60
2022-08-03T07:18:50.267Z,18.40
2022-08-03T07:21:20.583Z,17.77
2022-08-03T07:23:59.374Z,17.50
2022-08-03T07:26:41.782Z,17.63
2022-08-03T07:29:11.502Z,18.10
2022-08-03T07:32:19.329Z,18.33
2022-08-03T07:35:08.717Z,18.13
2022-08-03T07:37:37.515Z,18.17
2022-08-03T07:40:17.860Z,19.63
2022-08-03T07:43:19.366Z,19.13
2022-08-03T07:45:51.997Z,19.90
2022-08-03T07:48:33.702Z,19.00
2022-08-03T07:51:03.530Z,18.73
2022-08-03T07:53:47.817Z,19.43
2022-08-03T07:56:17.735Z,18.60
2022-08-03T07:58:55.872Z,19.10
2022-08-03T08:01:26.625Z,18.37
2022-08-03T08:04:04.276Z,17.93
2022-08-03T08:06:44.547Z,18.57
2022-08-03T08:09:49.747Z,18.07
2022-08-03T08:12:48.785Z,18.93
2022-08-03T08:15:19.291Z,19.03
2022-08-03T08:17:55.653Z,19.97
2022-08-03T08:20:45.996Z,17.87
2022-08-03T08:23:25.492Z,17.63
2022-08-03T08:26:12.186Z,17.83
2022-08-03T08:28:52.932Z,18.17
2022-08-03T08:31:21.476Z,18.73
2022-08-03T08:34:06.162Z,17.33
2022-08-03T08:36:41.875Z,19.23
2022-08-03T08:39:24.132Z,18.47
2022-08-03T08:41:56.737Z,17.80
2022-08-03T08:44:44.591Z,18.50
2022-08-03T08:47:23.461Z,18.47
2022-08-03T08:50:09.176Z,18.57
2022-08-03T08:52:57.320Z,18.20
2022-08-03T08:55:58.288Z,18.47
2022-08-03T08:59:47.735Z,17.97
2022-08-03T09:03:29.966Z,18.23
2022-08-03T09:06:25.589Z,19.00
2022-08-03T09:09:01.559Z,20.43
2022-08-03T09:11:54.534Z,17.83
2022-08-03T09:14:36.782Z,17.73
2022-08-03T09:17:17.028Z,17.70
2022-08-03T09:20:07.478Z,18.97
2022-08-03T09:23:59.059Z,18.10
2022-08-03T09:26:28.289Z,19.30
2022-08-03T09:29:23.949Z,18.90
2022-08-03T09:32:03.639Z,18.63
2022-08-03T09:34:45.043Z,18.50
2022-08-03T09:38:12.775Z,17.70
2022-08-03T09:40:36.277Z,18.00
2022-08-03T09:43:46.887Z,19.03
2022-08-03T09:46:28.675Z,18.00
2022-08-03T09:49:11.962Z,17.30
2022-08-03T09:52:33.144Z,18.13
2022-08-03T09:54:38.577Z,19.13
2022-08-03T09:57:06.833Z,17.10
2022-08-03T09:59:45.821Z,18.20
2022-08-03T10:02:33.645Z,17.40
2022-08-03T10:05:19.752Z,18.13
2022-08-03T10:07:51.027Z,17.10
2022-08-03T10:10:30.803Z,17.83
2022-08-03T10:13:13.056Z,18.03
2022-08-03T10:16:23.291Z,17.07
2022-08-03T10:18:37.189Z,17.20
2022-08-03T10:21:21.637Z,17.13
2022-08-03T10:23:57.857Z,16.90
2022-08-03T10:26:34.900Z,16.80
2022-08-03T10:29:13.004Z,17.10
2022-08-03T10:31:54.492Z,16.63
2022-08-03T10:34:30.394Z,19.10
2022-08-03T10:37:19.357Z,17.53
2022-08-03T10:39:56.356Z,16.70
2022-08-03T10:42:27.512Z,16.90
2022-08-03T10:45:05.315Z,17.37
2022-08-03T10:47:55.611Z,16.63
2022-08-03T10:50:49.849Z,16.47
2022-08-03T10:53:37.253Z,18.07
2022-08-03T10:57:13.673Z,16.83
2022-08-03T11:00:04.898Z,16.73
2022-08-03T11:03:14.174Z,16.53
2022-08-03T11:05:46.329Z,17.10
2022-08-03T11:08:37.705Z,16.90
2022-08-03T11:11:28.696Z,16.70
2022-08-03T11:14:14.139Z,16.90
2022-08-03T11:17:14.461Z,16.93
2022-08-03T11:20:00.316Z,16.80
2022-08-03T11:25:55.245Z,16.47
2022-08-03T11:28:30.621Z,17.50
2022-08-03T11:32:00.178Z,16.57
2022-08-03T11:34:28.942Z,17.20
2022-08-03T11:37:33.010Z,17.40
2022-08-03T11:40:37.249Z,16.77
2022-08-03T11:43:08.099Z,17.30
2022-08-03T11:45:37.873Z,16.80
2022-08-03T11:48:18.682Z,17.60
2022-08-03T11:53:41.980Z,18.87
2022-08-03T11:56:25.001Z,19.70
2022-08-03T11:59:20.423Z,17.57
2022-08-03T12:02:19.132Z,17.97
2022-08-03T12:04:53.670Z,17.40
2022-08-03T12:07:25.032Z,17.40
2022-08-03T12:10:30.488Z,18.13
2022-08-03T12:13:02.705Z,16.97
2022-08-03T12:15:51.498Z,17.30
2022-08-03T12:18:42.379Z,17.60
2022-08-03T12:21:12.103Z,16.80
2022-08-03T12:23:41.079Z,16.53
2022-08-03T12:26:44.955Z,16.33
2022-08-03T12:29:28.706Z,17.23
2022-08-03T12:31:58.325Z,17.07
2022-08-03T12:34:48.739Z,17.73
2022-08-03T12:37:34.556Z,16.67
2022-08-03T12:40:13.238Z,17.03
2022-08-03T12:42:44.362Z,16.87
2022-08-03T12:45:27.453Z,16.87
2022-08-03T12:48:18.397Z,16.63
2022-08-03T12:50:53.615Z,17.20
2022-08-03T12:53:33.952Z,18.03
2022-08-03T12:56:13.244Z,17.10
2022-08-03T12:58:58.917Z,16.97
2022-08-03T13:01:55.117Z,17.27
2022-08-03T13:04:42.745Z,16.63
2022-08-03T13:07:12.888Z,16.77
2022-08-03T13:09:54.695Z,16.47
2022-08-03T13:12:30.749Z,17.50
2022-08-03T13:15:02.382Z,17.30
2022-08-03T13:17:32.023Z,17.07
2022-08-03T13:20:00.203Z,16.50
2022-08-03T13:22:35.611Z,16.60
2022-08-03T13:25:05.840Z,16.50
2022-08-03T13:28:04.080Z,16.67
2022-08-03T13:30:30.514Z,16.67
2022-08-03T13:33:14.328Z,16.97
2022-08-03T13:35:44.520Z,17.33
2022-08-03T13:38:32.721Z,17.00
2022-08-03T13:41:04.913Z,17.30
2022-08-03T13:43:42.447Z,17.40
2022-08-03T13:46:23.963Z,17.33
2022-08-03T13:48:53.717Z,17.23
2022-08-03T13:51:28.186Z,17.50
2022-08-03T13:53:57.275Z,17.10
2022-08-03T13:56:33.120Z,17.03
2022-08-03T13:59:29.342Z,17.70
2022-08-03T14:02:15.795Z,17.60
2022-08-03T14:04:49.534Z,17.80
2022-08-03T14:07:29.841Z,17.87
2022-08-03T14:10:01.857Z,17.40
2022-08-03T14:12:44.458Z,18.40
2022-08-03T14:15:23.578Z,17.20
2022-08-03T14:17:58.524Z,18.03
2022-08-03T14:20:36.348Z,16.87
2022-08-03T14:23:06.857Z,17.00
2022-08-03T14:26:06.094Z,16.83
2022-08-03T14:28:43.220Z,16.23
2022-08-03T14:32:09.440Z,16.40
2022-08-03T14:34:39.718Z,16.30
2022-08-03T14:38:09.076Z,16.30
2022-08-03T14:41:04.231Z,16.60
2022-08-03T14:44:08.590Z,16.57
2022-08-03T14:46:44.069Z,16.33
2022-08-03T14:50:36.510Z,16.50
2022-08-03T14:52:28.422Z,16.57
2022-08-03T14:55:03.488Z,16.73
2022-08-03T14:57:35.095Z,16.40
2022-08-03T15:00:03.335Z,16.50
2022-08-03T15:02:42.932Z,16.70
2022-08-03T15:05:16.935Z,16.37
2022-08-03T15:07:45.200Z,17.23
2022-08-03T15:10:21.248Z,16.90
2022-08-03T15:12:58.671Z,16.40
2022-08-03T15:15:30.169Z,17.00
2022-08-03T15:18:00.430Z,16.40
2022-08-03T15:20:42.462Z,16.90
2022-08-03T15:23:12.391Z,16.60
2022-08-03T15:26:03.923Z,16.10
2022-08-03T15:28:30.094Z,16.20
2022-08-03T15:30:58.256Z,17.20
2022-08-03T15:33:27.269Z,17.10
2022-08-03T15:35:56.219Z,16.67
2022-08-03T15:38:25.794Z,16.53
2022-08-03T15:40:55.862Z,16.67
2022-08-03T15:43:24.128Z,17.47
2022-08-03T15:48:41.491Z,16.67
2022-08-03T15:51:10.207Z,22.10
2022-08-03T15:53:38.961Z,19.83
2022-08-03T15:56:13.273Z,16.83
2022-08-03T15:59:09.397Z,16.97
2022-08-03T16:01:34.344Z,21.90
2022-08-03T16:04:02.366Z,91.43
2022-08-03T16:06:35.826Z,33.60
2022-08-03T16:09:23.509Z,17.40
2022-08-03T16:11:54.914Z,18.63
2022-08-03T16:14:32.722Z,17.43
2022-08-03T16:17:05.745Z,18.70
2022-08-03T16:19:33.703Z,17.30
2022-08-03T16:22:01.659Z,17.90
2022-08-03T16:24:31.603Z,17.80
2022-08-03T16:27:00.521Z,22.73
2022-08-03T16:29:29.438Z,18.73
2022-08-03T16:31:58.533Z,18.80
2022-08-03T16:34:27.838Z,22.67
2022-08-03T16:36:57.101Z,17.63
2022-08-03T16:39:27.137Z,53.63
2022-08-03T16:42:00.561Z,113.30
2022-08-03T16:44:31.102Z,81.27
2022-08-03T16:46:59.365Z,18.90
2022-08-03T16:49:54.528Z,19.90
2022-08-03T16:52:18.116Z,31.23
2022-08-03T16:54:50.760Z,80.73
2022-08-03T16:57:56.265Z,37.37
2022-08-03T17:00:33.386Z,45.10
2022-08-03T17:03:04.112Z,60.83
2022-08-03T17:05:47.038Z,23.83
2022-08-03T17:08:15.955Z,16.40
2022-08-03T17:10:45.617Z,17.43
2022-08-03T17:13:21.401Z,16.67
2022-08-03T17:16:01.073Z,16.30
2022-08-03T17:18:32.465Z,16.77
2022-08-03T17:21:05.895Z,16.10
2022-08-03T17:23:42.628Z,16.90
2022-08-03T17:26:21.700Z,16.40
2022-08-03T17:28:57.512Z,16.30
2022-08-03T17:31:31.211Z,17.97
2022-08-03T17:34:02.857Z,16.57
2022-08-03T17:37:02.587Z,16.30
2022-08-03T17:39:42.173Z,16.33
2022-08-03T17:42:29.363Z,16.83
2022-08-03T17:45:02.404Z,17.33
2022-08-03T17:47:42.105Z,17.00
2022-08-03T17:50:24.235Z,17.00
2022-08-03T17:53:07.306Z,16.80
2022-08-03T17:55:55.231Z,16.67
2022-08-03T17:58:39.706Z,17.30
2022-08-03T18:02:00.420Z,16.63
2022-08-03T18:04:29.813Z,16.67
2022-08-03T18:07:11.745Z,16.90
2022-08-03T18:10:03.484Z,16.87
2022-08-03T18:12:45.563Z,16.90
2022-08-03T18:15:27.934Z,17.23
2022-08-03T18:18:02.024Z,17.20
2022-08-03T18:23:36.613Z,16.87
2022-08-03T18:26:10.771Z,17.10
2022-08-03T18:28:41.307Z,16.90
2022-08-03T18:31:11.883Z,17.43
2022-08-03T18:34:18.637Z,17.10
2022-08-03T18:36:31.819Z,17.43
2022-08-03T18:39:00.625Z,17.30
2022-08-03T18:41:34.941Z,17.17
2022-08-03T18:44:06.838Z,17.07
2022-08-03T18:46:47.574Z,16.93
2022-08-03T18:49:25.422Z,17.20
2022-08-03T18:52:03.721Z,17.50
2022-08-03T18:54:45.566Z,17.40
2022-08-03T18:57:35.055Z,17.23
2022-08-03T19:00:12.265Z,16.87
2022-08-03T19:02:49.074Z,16.57
2022-08-03T19:05:21.607Z,16.80
2022-08-03T19:07:59.592Z,16.90
2022-08-03T19:10:32.324Z,16.80
2022-08-03T19:13:11.326Z,16.70
2022-08-03T19:15:51.284Z,16.60
2022-08-03T19:18:22.559Z,16.80
2022-08-03T19:20:54.759Z,16.80
2022-08-03T19:23:26.035Z,17.50
2022-08-03T19:26:05.269Z,17.20
2022-08-03T19:28:57.123Z,17.70
2022-08-03T19:31:31.106Z,17.90
2022-08-03T19:34:04.424Z,17.40
2022-08-03T19:36:40.416Z,17.37
2022-08-03T19:39:09.980Z,17.30
2022-08-03T19:41:42.207Z,17.30
2022-08-03T19:44:19.835Z,17.90
2022-08-03T19:47:11.095Z,19.00
2022-08-03T19:49:57.764Z,18.40
2022-08-03T19:52:38.964Z,19.10
2022-08-03T19:55:12.111Z,18.83
2022-08-03T19:57:47.134Z,18.97
2022-08-03T20:00:26.530Z,19.70
2022-08-03T20:03:24.971Z,20.10
2022-08-03T20:06:04.525Z,18.57
2022-08-03T20:09:21.262Z,18.83
2022-08-03T20:11:53.275Z,17.30
2022-08-03T20:14:41.213Z,17.87
2022-08-03T20:17:16.193Z,17.53
2022-08-03T20:20:00.204Z,18.40
2022-08-03T20:22:35.280Z,18.13
2022-08-03T20:25:24.060Z,18.33
2022-08-03T20:28:26.645Z,18.40
2022-08-03T20:31:05.257Z,17.70
2022-08-03T20:33:46.346Z,17.70
2022-08-03T20:36:18.246Z,17.77
2022-08-03T20:38:48.069Z,17.87
2022-08-03T20:41:16.959Z,17.37
2022-08-03T20:43:45.443Z,17.60
2022-08-03T20:46:31.868Z,17.80
2022-08-03T20:49:13.395Z,17.80
2022-08-03T20:51:53.285Z,17.70
2022-08-03T20:54:31.042Z,18.50
2022-08-03T20:57:04.428Z,17.20
2022-08-03T21:02:38.718Z,16.83
2022-08-03T21:05:47.907Z,17.47
2022-08-03T21:08:26.380Z,17.70
2022-08-03T21:11:08.811Z,18.17
2022-08-03T21:13:04.438Z,17.50
2022-08-03T21:13:07.829Z,18.67
2022-08-03T21:13:44.170Z,17.80
2022-08-03T21:16:15.195Z,17.67
2022-08-03T21:18:49.623Z,17.63
2022-08-03T21:21:23.485Z,17.20
2022-08-03T21:23:54.165Z,17.50
2022-08-03T21:26:34.605Z,17.20
2022-08-03T21:29:03.917Z,17.10
2022-08-03T21:31:33.205Z,17.83
2022-08-03T21:34:03.960Z,19.10
2022-08-03T21:36:35.575Z,17.60
2022-08-03T21:39:14.841Z,18.13
2022-08-03T21:41:43.152Z,18.70
2022-08-03T21:44:54.830Z,17.80
2022-08-03T21:47:48.653Z,18.13
2022-08-03T21:50:17.642Z,17.37
2022-08-03T21:56:29.832Z,17.87
2022-08-03T21:59:08.701Z,17.80
2022-08-03T22:01:51.499Z,17.83
2022-08-03T22:04:34.402Z,18.57
2022-08-03T22:07:20.880Z,19.00
2022-08-03T22:09:51.433Z,19.40
2022-08-03T22:12:24.993Z,19.60
2022-08-03T22:15:00.920Z,18.70
2022-08-03T22:17:56.030Z,19.13
2022-08-03T22:20:27.585Z,18.97
2022-08-03T22:23:06.629Z,19.30
2022-08-03T22:25:45.023Z,19.30
2022-08-03T22:28:16.300Z,18.70
2022-08-03T22:30:53.604Z,19.30
2022-08-03T22:33:37.321Z,18.70
2022-08-03T22:36:13.665Z,18.67
2022-08-03T22:38:48.183Z,18.83
2022-08-03T22:41:38.946Z,19.20
2022-08-03T22:44:08.540Z,19.10
2022-08-03T22:46:57.295Z,19.13
2022-08-03T22:49:39.375Z,18.97
2022-08-03T22:52:14.956Z,19.40
2022-08-03T22:54:43.727Z,19.13
2022-08-03T22:57:50.977Z,19.20
2022-08-03T23:00:25.941Z,19.00
2022-08-03T23:02:58.028Z,19.00
2022-08-03T23:06:02.320Z,18.23
2022-08-03T23:08:28.896Z,18.70
2022-08-03T23:11:19.267Z,18.50
2022-08-03T23:14:16.343Z,19.83
2022-08-03T23:16:55.919Z,19.13
2022-08-03T23:19:44.909Z,19.30
2022-08-03T23:22:30.187Z,18.47
2022-08-03T23:25:25.649Z,19.07
2022-08-03T23:28:05.067Z,18.50
2022-08-03T23:30:53.125Z,18.50
2022-08-03T23:34:16.739Z,18.60
2022-08-03T23:36:49.088Z,19.07
2022-08-03T23:39:51.788Z,18.40
2022-08-03T23:42:36.083Z,18.77
2022-08-03T23:45:17.036Z,18.57
2022-08-03T23:47:50.962Z,19.20
2022-08-03T23:50:46.606Z,18.80
2022-08-03T23:53:39.706Z,19.40
2022-08-03T23:56:31.953Z,18.70
2022-08-03T23:59:08.225Z,19.27
